createdAt,value
2022-09-10T00:00:47.780Z,14.20
2022-09-10T00:03:14.505Z,14.20
2022-09-10T00:05:43.541Z,14.20
2022-09-10T00:08:10.693Z,14.20
2022-09-10T00:10:42.670Z,14.10
2022-09-10T00:13:09.916Z,14.10
2022-09-10T00:15:40.400Z,14.10
2022-09-10T00:18:09.425Z,14.00
2022-09-10T00:20:47.910Z,14.00
2022-09-10T00:23:15.895Z,14.00
2022-09-10T00:25:42.859Z,14.00
2022-09-10T00:28:09.738Z,14.00
2022-09-10T00:30:48.307Z,14.00
2022-09-10T00:33:16.806Z,13.90
2022-09-10T00:35:44.348Z,13.90
2022-09-10T00:38:12.135Z,14.00
2022-09-10T00:40:39.669Z,13.90
2022-09-10T00:43:15.510Z,13.90
2022-09-10T00:45:43.903Z,14.00
2022-09-10T00:48:28.744Z,14.00
2022-09-10T00:50:56.967Z,14.00
2022-09-10T00:53:28.027Z,13.90
2022-09-10T00:55:59.840Z,13.90
2022-09-10T00:58:28.057Z,13.90
2022-09-10T01:00:59.508Z,13.90
2022-09-10T01:03:30.122Z,13.90
2022-09-10T01:05:57.358Z,14.00
2022-09-10T01:08:24.410Z,14.00
2022-09-10T01:11:28.414Z,14.00
2022-09-10T01:14:43.672Z,13.90
2022-09-10T01:17:19.335Z,13.90
2022-09-10T01:20:14.873Z,13.90
2022-09-10T01:23:08.527Z,13.90
2022-09-10T01:25:43.395Z,13.90
2022-09-10T01:28:26.274Z,13.90
2022-09-10T01:30:56.226Z,14.00
2022-09-10T01:33:34.010Z,14.00
2022-09-10T01:36:06.855Z,14.00
2022-09-10T01:38:38.397Z,13.90
2022-09-10T01:41:05.906Z,14.00
2022-09-10T01:43:33.805Z,13.90
2022-09-10T01:46:29.878Z,13.90
2022-09-10T01:49:18.722Z,14.00
2022-09-10T01:52:03.692Z,14.00
2022-09-10T01:54:41.814Z,14.00
2022-09-10T01:57:11.217Z,13.90
2022-09-10T01:59:50.956Z,13.90
2022-09-10T02:02:46.890Z,13.90
2022-09-10T02:05:16.995Z,13.90
2022-09-10T02:07:46.160Z,13.90
2022-09-10T02:10:12.836Z,13.90
2022-09-10T02:12:40.032Z,13.90
2022-09-10T02:15:08.573Z,13.90
2022-09-10T02:17:38.225Z,13.90
2022-09-10T02:20:09.427Z,14.00
2022-09-10T02:22:36.914Z,14.00
2022-09-10T02:25:04.452Z,14.00
2022-09-10T02:27:31.399Z,13.90
2022-09-10T02:29:58.365Z,13.90
2022-09-10T02:32:25.298Z,13.90
2022-09-10T02:34:51.942Z,14.00
2022-09-10T02:37:20.110Z,14.00
2022-09-10T02:39:47.005Z,14.00
2022-09-10T02:42:16.905Z,13.90
2022-09-10T02:44:44.533Z,13.90
2022-09-10T02:47:11.316Z,14.00
2022-09-10T02:49:37.963Z,14.00
2022-09-10T02:52:04.781Z,14.00
2022-09-10T02:54:31.419Z,14.10
2022-09-10T02:56:58.208Z,14.10
2022-09-10T02:59:25.070Z,14.10
2022-09-10T03:01:51.813Z,14.20
2022-09-10T03:04:18.551Z,14.20
2022-09-10T03:06:47.016Z,14.20
2022-09-10T03:09:13.693Z,14.20
2022-09-10T03:11:40.628Z,14.30
2022-09-10T03:14:10.186Z,14.30
2022-09-10T03:16:36.893Z,14.30
2022-09-10T03:19:04.019Z,14.30
2022-09-10T03:21:30.720Z,14.30
2022-09-10T03:23:57.436Z,14.30
2022-09-10T03:26:27.781Z,14.30
2022-09-10T03:28:54.903Z,14.20
2022-09-10T03:31:21.761Z,14.20
2022-09-10T03:33:49.209Z,14.20
2022-09-10T03:36:15.952Z,14.20
2022-09-10T03:38:42.875Z,14.30
2022-09-10T03:41:09.779Z,14.30
2022-09-10T03:43:36.695Z,14.30
2022-09-10T03:46:03.523Z,14.20
2022-09-10T03:48:30.205Z,14.30
2022-09-10T03:50:57.223Z,14.20
2022-09-10T03:53:24.145Z,14.20
2022-09-10T03:55:51.996Z,14.30
2022-09-10T03:58:18.935Z,14.20
2022-09-10T04:00:46.582Z,14.20
2022-09-10T04:03:14.510Z,14.20
2022-09-10T04:05:45.378Z,14.20
2022-09-10T04:08:13.772Z,14.20
2022-09-10T04:10:41.289Z,14.20
2022-09-10T04:13:08.135Z,14.20
2022-09-10T04:15:34.880Z,14.20
2022-09-10T04:18:01.623Z,14.20
2022-09-10T04:20:28.310Z,14.20
2022-09-10T04:22:56.659Z,14.30
2022-09-10T04:25:23.577Z,14.20
2022-09-10T04:27:50.505Z,14.30
2022-09-10T04:30:17.810Z,14.30
2022-09-10T04:32:45.179Z,14.30
2022-09-10T04:35:15.220Z,14.30
2022-09-10T04:37:42.962Z,14.30
2022-09-10T04:40:10.439Z,14.30
2022-09-10T04:42:37.284Z,14.20
2022-09-10T04:45:04.772Z,14.20
2022-09-10T04:47:31.658Z,14.20
2022-09-10T04:49:58.371Z,14.20
2022-09-10T04:52:25.065Z,14.20
2022-09-10T04:54:51.743Z,14.20
2022-09-10T04:57:18.496Z,14.20
2022-09-10T04:59:45.261Z,14.20
2022-09-10T05:02:12.807Z,14.20
2022-09-10T05:04:39.981Z,14.20
2022-09-10T05:07:06.713Z,14.20
2022-09-10T05:09:33.811Z,14.20
2022-09-10T05:12:03.336Z,14.10
2022-09-10T05:14:30.232Z,14.10
2022-09-10T05:16:57.271Z,14.10
2022-09-10T05:19:23.947Z,14.10
2022-09-10T05:21:50.876Z,14.10
2022-09-10T05:24:17.748Z,14.10
2022-09-10T05:26:44.918Z,14.10
2022-09-10T05:29:11.954Z,14.10
2022-09-10T05:31:38.780Z,14.10
2022-09-10T05:34:05.527Z,14.10
2022-09-10T05:36:32.357Z,14.10
2022-09-10T05:39:00.307Z,14.10
2022-09-10T05:41:28.169Z,14.20
2022-09-10T05:43:55.151Z,14.10
2022-09-10T05:46:22.945Z,14.20
2022-09-10T05:48:49.886Z,14.20
2022-09-10T05:51:17.447Z,14.20
2022-09-10T05:53:44.144Z,14.20
2022-09-10T05:56:10.856Z,14.20
2022-09-10T05:58:37.624Z,14.20
2022-09-10T06:01:04.332Z,14.30
2022-09-10T06:03:31.057Z,14.20
2022-09-10T06:05:57.714Z,14.20
2022-09-10T06:08:24.427Z,14.30
2022-09-10T06:11:04.009Z,14.30
2022-09-10T06:13:31.960Z,14.30
2022-09-10T06:15:59.431Z,14.40
2022-09-10T06:18:26.189Z,14.40
2022-09-10T06:21:07.668Z,14.40
2022-09-10T06:23:36.076Z,14.50
2022-09-10T06:26:04.975Z,14.50
2022-09-10T06:28:33.127Z,14.50
2022-09-10T06:31:00.321Z,14.50
2022-09-10T06:33:27.249Z,14.60
2022-09-10T06:35:55.955Z,14.60
2022-09-10T06:38:23.087Z,14.60
2022-09-10T06:40:54.589Z,14.60
2022-09-10T06:43:25.976Z,14.70
2022-09-10T06:45:54.050Z,14.70
2022-09-10T06:48:39.067Z,14.80
2022-09-10T06:51:09.094Z,14.80
2022-09-10T06:53:37.023Z,14.90
2022-09-10T06:56:08.438Z,15.00
2022-09-10T06:58:35.580Z,15.00
2022-09-10T07:01:21.526Z,15.10
2022-09-10T07:03:48.397Z,15.20
2022-09-10T07:06:17.686Z,15.20
2022-09-10T07:08:44.384Z,15.20
2022-09-10T07:11:14.569Z,15.30
2022-09-10T07:13:43.112Z,15.40
2022-09-10T07:16:10.080Z,15.50
2022-09-10T07:18:36.852Z,15.50
2022-09-10T07:21:23.453Z,15.50
2022-09-10T07:23:54.635Z,15.50
2022-09-10T07:26:21.309Z,15.40
2022-09-10T07:28:48.313Z,15.50
2022-09-10T07:31:38.232Z,15.50
2022-09-10T07:34:04.961Z,15.50
2022-09-10T07:36:32.429Z,15.50
2022-09-10T07:39:03.086Z,15.50
2022-09-10T07:41:31.859Z,15.50
2022-09-10T07:43:58.624Z,15.50
2022-09-10T07:46:27.882Z,15.60
2022-09-10T07:48:57.378Z,15.60
2022-09-10T07:51:25.208Z,15.60
2022-09-10T07:53:56.821Z,15.70
2022-09-10T07:56:27.556Z,15.80
2022-09-10T07:58:57.383Z,15.80
2022-09-10T08:01:24.347Z,15.90
2022-09-10T08:03:51.266Z,15.90
2022-09-10T08:06:18.341Z,15.90
2022-09-10T08:08:44.995Z,15.90
2022-09-10T08:11:13.122Z,16.00
2022-09-10T08:13:45.452Z,16.10
2022-09-10T08:16:18.857Z,16.10
2022-09-10T08:18:47.564Z,16.20
2022-09-10T08:21:15.476Z,16.30
2022-09-10T08:23:43.744Z,16.40
2022-09-10T08:26:10.491Z,16.40
2022-09-10T08:28:37.922Z,16.40
2022-09-10T08:31:08.790Z,16.60
2022-09-10T08:33:36.647Z,16.90
2022-09-10T08:36:04.691Z,17.10
2022-09-10T08:38:33.607Z,17.30
2022-09-10T08:41:02.507Z,17.40
2022-09-10T08:43:41.799Z,17.40
2022-09-10T08:46:20.512Z,17.40
2022-09-10T08:48:55.021Z,17.30
2022-09-10T08:51:34.789Z,17.40
2022-09-10T08:54:11.447Z,17.30
2022-09-10T08:56:40.793Z,17.40
2022-09-10T08:59:30.788Z,17.40
2022-09-10T09:02:01.018Z,17.30
2022-09-10T09:04:47.421Z,17.30
2022-09-10T09:07:16.128Z,17.30
2022-09-10T09:09:43.315Z,17.20
2022-09-10T09:12:32.291Z,17.30
2022-09-10T09:15:12.875Z,17.40
2022-09-10T09:18:04.104Z,17.80
2022-09-10T09:21:00.866Z,18.00
2022-09-10T09:24:02.687Z,18.30
2022-09-10T09:26:35.573Z,18.50
2022-09-10T09:29:07.697Z,18.80
2022-09-10T09:31:40.431Z,19.00
2022-09-10T09:34:28.166Z,19.10
2022-09-10T09:36:57.486Z,19.20
2022-09-10T09:39:31.798Z,19.20
2022-09-10T09:42:49.897Z,19.10
2022-09-10T09:45:34.524Z,19.10
2022-09-10T09:48:01.342Z,18.90
2022-09-10T09:50:30.989Z,18.80
2022-09-10T09:52:57.711Z,18.70
2022-09-10T09:55:30.593Z,18.80
2022-09-10T09:58:22.459Z,19.10
2022-09-10T10:01:04.500Z,19.30
2022-09-10T10:03:31.185Z,19.50
2022-09-10T10:06:05.976Z,19.50
2022-09-10T10:08:34.117Z,19.40
2022-09-10T10:11:01.473Z,19.30
2022-09-10T10:13:42.970Z,19.20
2022-09-10T10:16:35.662Z,19.00
2022-09-10T10:19:02.825Z,18.80
2022-09-10T10:21:34.402Z,18.80
2022-09-10T10:24:01.157Z,19.00
2022-09-10T10:26:31.433Z,19.10
2022-09-10T10:29:19.545Z,19.30
2022-09-10T10:31:48.967Z,19.20
2022-09-10T10:34:37.383Z,19.00
2022-09-10T10:37:36.406Z,19.00
2022-09-10T10:40:06.190Z,19.00
2022-09-10T10:42:51.751Z,19.10
2022-09-10T10:45:38.768Z,19.00
2022-09-10T10:48:20.310Z,18.80
2022-09-10T10:51:09.380Z,18.70
2022-09-10T10:53:53.753Z,18.60
2022-09-10T10:56:47.738Z,18.50
2022-09-10T10:59:33.270Z,18.60
2022-09-10T11:02:14.023Z,18.50
2022-09-10T11:04:46.884Z,18.50
2022-09-10T11:07:26.655Z,18.50
2022-09-10T11:10:23.430Z,18.50
2022-09-10T11:13:11.755Z,18.50
2022-09-10T11:15:48.235Z,18.60
2022-09-10T11:18:41.703Z,18.80
2022-09-10T11:21:16.479Z,18.90
2022-09-10T11:23:49.179Z,19.00
2022-09-10T11:26:21.551Z,19.10
2022-09-10T11:29:03.676Z,19.30
2022-09-10T11:31:35.598Z,19.50
2022-09-10T11:34:07.199Z,19.50
2022-09-10T11:36:41.981Z,19.60
2022-09-10T11:39:17.773Z,19.70
2022-09-10T11:41:48.524Z,20.00
2022-09-10T11:44:27.384Z,20.20
2022-09-10T11:46:59.677Z,20.30
2022-09-10T11:49:58.157Z,20.50
2022-09-10T11:52:27.747Z,20.30
2022-09-10T11:54:56.010Z,19.90
2022-09-10T11:57:30.136Z,19.50
2022-09-10T12:00:15.726Z,19.20
2022-09-10T12:03:04.588Z,19.10
2022-09-10T12:05:53.214Z,19.30
2022-09-10T12:08:22.861Z,19.50
2022-09-10T12:11:14.616Z,19.70
2022-09-10T12:13:44.572Z,19.80
2022-09-10T12:16:19.465Z,19.90
2022-09-10T12:18:50.353Z,20.00
2022-09-10T12:21:41.465Z,20.00
2022-09-10T12:24:28.427Z,20.00
2022-09-10T12:26:55.445Z,20.10
2022-09-10T12:29:27.726Z,20.30
2022-09-10T12:32:21.772Z,20.50
2022-09-10T12:35:08.766Z,20.60
2022-09-10T12:37:35.925Z,20.80
2022-09-10T12:40:37.841Z,21.00
2022-09-10T12:43:46.409Z,21.10
2022-09-10T12:46:13.050Z,20.40
2022-09-10T12:48:42.807Z,21.00
2022-09-10T12:51:16.907Z,21.10
2022-09-10T12:53:52.697Z,21.30
2022-09-10T12:59:10.538Z,21.00
2022-09-10T13:07:21.209Z,21.20
2022-09-10T13:10:01.728Z,21.60
2022-09-10T13:12:29.347Z,21.60
2022-09-10T13:14:57.589Z,21.60
2022-09-10T13:17:36.264Z,21.80
2022-09-10T13:20:30.567Z,21.50
2022-09-10T13:23:09.501Z,21.80
